Blairsville, GA

12:32 AM EDT ar Ebrill 19, 2015 (GMT -0400)
Old England | | Change Station
CLOSE
Current Station
Personal Weather Stations
Location: Blairsville, GA
Elevation: 1883 ft
Nearby Weather Stations

Elev 1883 ft 34.90 °N, 84.03 °W | Updated 2 minutes ago

Cymylog
Cymylog
63.8 °F
Feels Like 63.8 °F
N
0.0
Gwynt Cyfnewidiol Gwynt from GwDGw
Gusts 0.0 mph

Heddiw
High -- | Low -- °F
--% Chance of Precip.
Yesterday
High -- | Low -- °F
Precip. -- mod
6:59 AM 8:11 PM
New, 0% visible
Gwasgedd 29.97 mod
Gwelededd 10.0 Milltiroedd
Clouds Cymylau Gwasgaredig 3100 ft
Cymylog 3900 ft
Gwlithbwynt 61 °F
Lleithder 90%
Rainfall 0.00 mod
Snow Depth Not available.
UV 0 out of 12
Pollen 10.30 out of 12
Air Quality Not available.
Flu Activity Sporadic
METAR KRHP 190415Z AUTO 00000KT 10SM SCT031 OVC039 16/16 A2997 RMK AO2 T01620162

More Conditions Fewer Conditions

Gwasgedd 29.97 mod
Gwelededd 10.0 Milltiroedd
Clouds Cymylau Gwasgaredig 3100 ft
Cymylog 3900 ft
Gwlithbwynt 61 °F
Lleithder 90%
Rainfall 0.00 mod
Snow Depth Not available.
UV 0 out of 12
Pollen 10.30 out of 12
Air Quality Not available.
Flu Activity Sporadic
METAR KRHP 190415Z AUTO 00000KT 10SM SCT031 OVC039 16/16 A2997 RMK AO2 T01620162

More Conditions Fewer Conditions

10-Day Weather Forecast

Almanac

Astronomy

Apr. 19, 2015 Rise Set
Actual Time
Civil Twilight
Nautical Twilight
Astronomical Twilight
Moon
Length Of Visible Light
Length of Day
Tomorrow will be .
, % of the Moon is Illuminated

Today's Extremes

State Highs State Lows

Community

WunderPhotos

Upload Photos

1,814,723 photos uploaded!

WunderBlogs® & News

Nearby

Air Quality

  Air Quality AQ Index Pollutant
Not available.

Snow Depth

Station Depth Elevation

Earthquake Activity

City Distance Mag. Time & Date
Minimum magnitude displayed is 2.5.

Coastal Water Temperatures

Lle Tymheredd

Stations

Nearby Weather Stations

Station Location Temp Oerfel Gwynt Gwlithbwynt Lleithder Gwynt Precip. Elev Diweddarwyd Type